sensor_id;sensor_type;location;lat;lon;timestamp;P1;durP1;ratioP1;P2;durP2;ratioP2
18881;SDS011;9573;50.948;11.600;2023-02-15T00:00:17;38.63;;;15.70;;
18881;SDS011;9573;50.948;11.600;2023-02-15T00:02:45;40.40;;;15.53;;
18881;SDS011;9573;50.948;11.600;2023-02-15T00:05:12;46.97;;;17.03;;
18881;SDS011;9573;50.948;11.600;2023-02-15T00:07:39;50.10;;;15.90;;
18881;SDS011;9573;50.948;11.600;2023-02-15T00:10:07;42.87;;;15.47;;
18881;SDS011;9573;50.948;11.600;2023-02-15T00:12:37;58.03;;;18.17;;
18881;SDS011;9573;50.948;11.600;2023-02-15T00:15:04;46.37;;;17.40;;
18881;SDS011;9573;50.948;11.600;2023-02-15T00:17:32;62.43;;;16.57;;
18881;SDS011;9573;50.948;11.600;2023-02-15T00:20:00;61.27;;;16.07;;
18881;SDS011;9573;50.948;11.600;2023-02-15T00:22:27;53.43;;;15.37;;
18881;SDS011;9573;50.948;11.600;2023-02-15T00:24:54;44.93;;;12.53;;
18881;SDS011;9573;50.948;11.600;2023-02-15T00:27:21;107.30;;;14.07;;
18881;SDS011;9573;50.948;11.600;2023-02-15T00:29:48;51.87;;;13.10;;
18881;SDS011;9573;50.948;11.600;2023-02-15T00:32:15;77.90;;;13.23;;
18881;SDS011;9573;50.948;11.600;2023-02-15T00:34:44;81.87;;;14.90;;
18881;SDS011;9573;50.948;11.600;2023-02-15T00:37:11;101.17;;;14.93;;
18881;SDS011;9573;50.948;11.600;2023-02-15T00:39:38;63.83;;;14.40;;
18881;SDS011;9573;50.948;11.600;2023-02-15T00:42:05;74.83;;;14.37;;
18881;SDS011;9573;50.948;11.600;2023-02-15T00:44:32;53.43;;;13.60;;
18881;SDS011;9573;50.948;11.600;2023-02-15T00:46:59;79.10;;;14.47;;
18881;SDS011;9573;50.948;11.600;2023-02-15T00:49:26;105.77;;;16.63;;
18881;SDS011;9573;50.948;11.600;2023-02-15T00:51:54;56.07;;;14.27;;
18881;SDS011;9573;50.948;11.600;2023-02-15T00:54:22;78.13;;;15.40;;
18881;SDS011;9573;50.948;11.600;2023-02-15T00:56:49;66.90;;;15.33;;
18881;SDS011;9573;50.948;11.600;2023-02-15T00:59:16;88.13;;;15.80;;
18881;SDS011;9573;50.948;11.600;2023-02-15T01:01:43;64.67;;;13.73;;
18881;SDS011;9573;50.948;11.600;2023-02-15T01:04:10;72.10;;;14.53;;
18881;SDS011;9573;50.948;11.600;2023-02-15T01:06:37;68.53;;;14.50;;
18881;SDS011;9573;50.948;11.600;2023-02-15T01:09:05;59.33;;;12.37;;
18881;SDS011;9573;50.948;11.600;2023-02-15T01:11:32;74.87;;;12.97;;
18881;SDS011;9573;50.948;11.600;2023-02-15T01:13:59;56.20;;;12.10;;
18881;SDS011;9573;50.948;11.600;2023-02-15T01:16:28;67.10;;;11.93;;
18881;SDS011;9573;50.948;11.600;2023-02-15T01:18:55;66.77;;;12.30;;
18881;SDS011;9573;50.948;11.600;2023-02-15T01:21:23;48.30;;;12.33;;
18881;SDS011;9573;50.948;11.600;2023-02-15T01:23:51;47.13;;;11.90;;
18881;SDS011;9573;50.948;11.600;2023-02-15T01:26:20;43.77;;;12.37;;
18881;SDS011;9573;50.948;11.600;2023-02-15T01:28:48;68.60;;;12.27;;
18881;SDS011;9573;50.948;11.600;2023-02-15T01:31:15;83.97;;;13.40;;
18881;SDS011;9573;50.948;11.600;2023-02-15T01:33:46;82.20;;;12.87;;
18881;SDS011;9573;50.948;11.600;2023-02-15T01:36:14;59.67;;;11.97;;
18881;SDS011;9573;50.948;11.600;2023-02-15T01:38:42;65.67;;;14.53;;
18881;SDS011;9573;50.948;11.600;2023-02-15T01:41:09;52.00;;;12.73;;
18881;SDS011;9573;50.948;11.600;2023-02-15T01:43:53;50.30;;;12.10;;
18881;SDS011;9573;50.948;11.600;2023-02-15T01:46:24;42.20;;;11.97;;
18881;SDS011;9573;50.948;11.600;2023-02-15T01:49:00;68.63;;;13.33;;
18881;SDS011;9573;50.948;11.600;2023-02-15T01:51:33;59.30;;;13.03;;
18881;SDS011;9573;50.948;11.600;2023-02-15T01:54:05;41.50;;;12.40;;
18881;SDS011;9573;50.948;11.600;2023-02-15T01:56:38;85.50;;;15.83;;
18881;SDS011;9573;50.948;11.600;2023-02-15T01:59:09;50.00;;;12.47;;
18881;SDS011;9573;50.948;11.600;2023-02-15T02:01:42;49.80;;;11.53;;
18881;SDS011;9573;50.948;11.600;2023-02-15T02:04:11;43.13;;;11.53;;
18881;SDS011;9573;50.948;11.600;2023-02-15T02:06:44;58.57;;;11.87;;
18881;SDS011;9573;50.948;11.600;2023-02-15T02:09:14;50.80;;;11.63;;
18881;SDS011;9573;50.948;11.600;2023-02-15T02:11:42;65.43;;;12.50;;
18881;SDS011;9573;50.948;11.600;2023-02-15T02:14:14;44.43;;;11.30;;
18881;SDS011;9573;50.948;11.600;2023-02-15T02:16:44;51.07;;;11.10;;
18881;SDS011;9573;50.948;11.600;2023-02-15T02:19:47;38.20;;;10.53;;
18881;SDS011;9573;50.948;11.600;2023-02-15T02:22:50;40.87;;;10.77;;
18881;SDS011;9573;50.948;11.600;2023-02-15T02:29:36;44.63;;;11.40;;
18881;SDS011;9573;50.948;11.600;2023-02-15T02:33:09;39.93;;;11.00;;
18881;SDS011;9573;50.948;11.600;2023-02-15T02:36:06;46.43;;;11.67;;
18881;SDS011;9573;50.948;11.600;2023-02-15T02:38:45;55.87;;;12.43;;
18881;SDS011;9573;50.948;11.600;2023-02-15T02:41:26;58.83;;;13.70;;
18881;SDS011;9573;50.948;11.600;2023-02-15T02:44:02;43.10;;;12.23;;
18881;SDS011;9573;50.948;11.600;2023-02-15T02:46:37;51.53;;;11.63;;
18881;SDS011;9573;50.948;11.600;2023-02-15T02:49:16;45.53;;;11.37;;
18881;SDS011;9573;50.948;11.600;2023-02-15T02:51:43;40.93;;;10.73;;
18881;SDS011;9573;50.948;11.600;2023-02-15T02:54:10;53.50;;;12.33;;
18881;SDS011;9573;50.948;11.600;2023-02-15T02:56:38;44.40;;;12.67;;
18881;SDS011;9573;50.948;11.600;2023-02-15T02:59:10;46.33;;;12.63;;
18881;SDS011;9573;50.948;11.600;2023-02-15T03:01:44;44.53;;;12.37;;
18881;SDS011;9573;50.948;11.600;2023-02-15T03:04:18;69.17;;;14.60;;
18881;SDS011;9573;50.948;11.600;2023-02-15T03:06:50;44.40;;;13.00;;
18881;SDS011;9573;50.948;11.600;2023-02-15T03:09:22;53.90;;;15.00;;
18881;SDS011;9573;50.948;11.600;2023-02-15T03:12:06;39.67;;;12.40;;
18881;SDS011;9573;50.948;11.600;2023-02-15T03:14:37;46.63;;;13.83;;
18881;SDS011;9573;50.948;11.600;2023-02-15T03:17:07;48.40;;;13.87;;
18881;SDS011;9573;50.948;11.600;2023-02-15T03:19:37;54.97;;;14.77;;
18881;SDS011;9573;50.948;11.600;2023-02-15T03:22:06;49.30;;;14.33;;
18881;SDS011;9573;50.948;11.600;2023-02-15T03:24:39;54.50;;;12.13;;
18881;SDS011;9573;50.948;11.600;2023-02-15T03:27:13;37.90;;;11.20;;
18881;SDS011;9573;50.948;11.600;2023-02-15T03:29:42;44.20;;;10.80;;
18881;SDS011;9573;50.948;11.600;2023-02-15T03:32:11;42.73;;;11.37;;
18881;SDS011;9573;50.948;11.600;2023-02-15T03:34:41;39.90;;;12.13;;
18881;SDS011;9573;50.948;11.600;2023-02-15T03:37:10;81.50;;;15.27;;
18881;SDS011;9573;50.948;11.600;2023-02-15T03:39:47;38.90;;;13.90;;
18881;SDS011;9573;50.948;11.600;2023-02-15T03:42:22;45.93;;;15.13;;
18881;SDS011;9573;50.948;11.600;2023-02-15T03:44:54;56.97;;;12.87;;
18881;SDS011;9573;50.948;11.600;2023-02-15T03:47:26;60.97;;;11.70;;
18881;SDS011;9573;50.948;11.600;2023-02-15T03:49:59;76.33;;;16.77;;
18881;SDS011;9573;50.948;11.600;2023-02-15T03:52:52;38.77;;;9.63;;
18881;SDS011;9573;50.948;11.600;2023-02-15T03:55:20;48.73;;;12.40;;
18881;SDS011;9573;50.948;11.600;2023-02-15T03:57:47;33.83;;;9.53;;
18881;SDS011;9573;50.948;11.600;2023-02-15T04:00:29;54.37;;;10.30;;
18881;SDS011;9573;50.948;11.600;2023-02-15T04:03:31;100.50;;;12.30;;
18881;SDS011;9573;50.948;11.600;2023-02-15T04:06:05;90.97;;;12.67;;
18881;SDS011;9573;50.948;11.600;2023-02-15T04:08:32;49.00;;;10.50;;
18881;SDS011;9573;50.948;11.600;2023-02-15T04:11:13;67.17;;;11.70;;
18881;SDS011;9573;50.948;11.600;2023-02-15T04:13:40;59.53;;;11.03;;
18881;SDS011;9573;50.948;11.600;2023-02-15T04:16:07;55.53;;;11.30;;
18881;SDS011;9573;50.948;11.600;2023-02-15T04:18:35;98.63;;;16.13;;
18881;SDS011;9573;50.948;11.600;2023-02-15T04:21:23;70.60;;;14.33;;
18881;SDS011;9573;50.948;11.600;2023-02-15T04:24:10;56.67;;;15.70;;
18881;SDS011;9573;50.948;11.600;2023-02-15T04:26:55;53.10;;;13.67;;
18881;SDS011;9573;50.948;11.600;2023-02-15T04:29:22;65.90;;;14.00;;
18881;SDS011;9573;50.948;11.600;2023-02-15T04:31:51;43.80;;;10.83;;
18881;SDS011;9573;50.948;11.600;2023-02-15T04:34:22;39.37;;;10.53;;
18881;SDS011;9573;50.948;11.600;2023-02-15T04:36:50;55.20;;;11.37;;
18881;SDS011;9573;50.948;11.600;2023-02-15T04:39:18;66.67;;;13.00;;
18881;SDS011;9573;50.948;11.600;2023-02-15T04:41:45;49.43;;;11.60;;
18881;SDS011;9573;50.948;11.600;2023-02-15T04:44:12;44.70;;;10.33;;
18881;SDS011;9573;50.948;11.600;2023-02-15T04:46:40;52.70;;;11.13;;
18881;SDS011;9573;50.948;11.600;2023-02-15T04:49:07;38.83;;;10.13;;
18881;SDS011;9573;50.948;11.600;2023-02-15T04:51:35;42.47;;;11.07;;
18881;SDS011;9573;50.948;11.600;2023-02-15T04:54:03;48.57;;;10.30;;
18881;SDS011;9573;50.948;11.600;2023-02-15T04:56:30;38.83;;;10.47;;
18881;SDS011;9573;50.948;11.600;2023-02-15T04:58:59;51.87;;;10.50;;
18881;SDS011;9573;50.948;11.600;2023-02-15T05:01:26;36.30;;;10.13;;
18881;SDS011;9573;50.948;11.600;2023-02-15T05:03:53;34.70;;;11.00;;
18881;SDS011;9573;50.948;11.600;2023-02-15T05:06:20;38.30;;;10.63;;
18881;SDS011;9573;50.948;11.600;2023-02-15T05:08:47;44.03;;;10.07;;
18881;SDS011;9573;50.948;11.600;2023-02-15T05:11:16;39.67;;;10.93;;
18881;SDS011;9573;50.948;11.600;2023-02-15T05:13:43;33.47;;;9.57;;
18881;SDS011;9573;50.948;11.600;2023-02-15T05:16:10;35.57;;;10.50;;
18881;SDS011;9573;50.948;11.600;2023-02-15T05:18:37;39.17;;;11.10;;
18881;SDS011;9573;50.948;11.600;2023-02-15T05:21:04;34.43;;;9.87;;
18881;SDS011;9573;50.948;11.600;2023-02-15T05:23:31;43.47;;;11.17;;
18881;SDS011;9573;50.948;11.600;2023-02-15T05:25:58;33.47;;;9.50;;
18881;SDS011;9573;50.948;11.600;2023-02-15T05:28:44;28.40;;;7.90;;
18881;SDS011;9573;50.948;11.600;2023-02-15T05:31:12;31.77;;;8.50;;
18881;SDS011;9573;50.948;11.600;2023-02-15T05:33:41;28.53;;;8.37;;
18881;SDS011;9573;50.948;11.600;2023-02-15T05:36:09;29.97;;;8.70;;
18881;SDS011;9573;50.948;11.600;2023-02-15T05:38:36;25.33;;;7.60;;
18881;SDS011;9573;50.948;11.600;2023-02-15T05:41:04;28.93;;;8.43;;
18881;SDS011;9573;50.948;11.600;2023-02-15T05:43:31;29.90;;;8.17;;
18881;SDS011;9573;50.948;11.600;2023-02-15T05:46:00;28.07;;;8.80;;
18881;SDS011;9573;50.948;11.600;2023-02-15T05:48:28;31.67;;;8.90;;
18881;SDS011;9573;50.948;11.600;2023-02-15T05:50:58;32.70;;;8.60;;
18881;SDS011;9573;50.948;11.600;2023-02-15T05:53:27;21.00;;;7.10;;
18881;SDS011;9573;50.948;11.600;2023-02-15T05:55:55;28.20;;;7.60;;
18881;SDS011;9573;50.948;11.600;2023-02-15T05:58:24;29.03;;;7.63;;
18881;SDS011;9573;50.948;11.600;2023-02-15T06:00:52;33.20;;;8.17;;
18881;SDS011;9573;50.948;11.600;2023-02-15T06:03:21;25.87;;;8.27;;
18881;SDS011;9573;50.948;11.600;2023-02-15T06:05:49;44.43;;;9.30;;
18881;SDS011;9573;50.948;11.600;2023-02-15T06:08:16;29.47;;;8.70;;
18881;SDS011;9573;50.948;11.600;2023-02-15T06:10:44;23.57;;;6.40;;
18881;SDS011;9573;50.948;11.600;2023-02-15T06:13:12;30.63;;;7.97;;
18881;SDS011;9573;50.948;11.600;2023-02-15T06:15:39;23.67;;;6.50;;
18881;SDS011;9573;50.948;11.600;2023-02-15T06:18:06;32.40;;;8.17;;
18881;SDS011;9573;50.948;11.600;2023-02-15T06:20:35;25.70;;;8.63;;
18881;SDS011;9573;50.948;11.600;2023-02-15T06:23:02;29.23;;;8.50;;
18881;SDS011;9573;50.948;11.600;2023-02-15T06:25:29;30.80;;;9.07;;
18881;SDS011;9573;50.948;11.600;2023-02-15T06:27:56;30.67;;;8.60;;
18881;SDS011;9573;50.948;11.600;2023-02-15T06:30:23;28.60;;;8.90;;
18881;SDS011;9573;50.948;11.600;2023-02-15T06:32:50;25.57;;;8.30;;
18881;SDS011;9573;50.948;11.600;2023-02-15T06:35:17;30.33;;;9.40;;
18881;SDS011;9573;50.948;11.600;2023-02-15T06:37:46;30.00;;;9.70;;
18881;SDS011;9573;50.948;11.600;2023-02-15T06:40:13;25.00;;;7.57;;
18881;SDS011;9573;50.948;11.600;2023-02-15T06:42:41;27.10;;;7.97;;
18881;SDS011;9573;50.948;11.600;2023-02-15T06:45:09;26.67;;;8.40;;
18881;SDS011;9573;50.948;11.600;2023-02-15T06:47:36;28.93;;;8.27;;
18881;SDS011;9573;50.948;11.600;2023-02-15T06:50:04;29.90;;;8.63;;
18881;SDS011;9573;50.948;11.600;2023-02-15T06:52:33;28.33;;;8.37;;
18881;SDS011;9573;50.948;11.600;2023-02-15T06:55:01;25.83;;;8.50;;
18881;SDS011;9573;50.948;11.600;2023-02-15T06:57:29;29.07;;;7.90;;
18881;SDS011;9573;50.948;11.600;2023-02-15T06:59:57;25.93;;;7.53;;
18881;SDS011;9573;50.948;11.600;2023-02-15T07:02:24;34.10;;;8.07;;
18881;SDS011;9573;50.948;11.600;2023-02-15T07:04:51;25.80;;;8.33;;
18881;SDS011;9573;50.948;11.600;2023-02-15T07:07:18;26.90;;;8.80;;
18881;SDS011;9573;50.948;11.600;2023-02-15T07:09:45;27.10;;;8.97;;
18881;SDS011;9573;50.948;11.600;2023-02-15T07:12:14;24.23;;;7.80;;
18881;SDS011;9573;50.948;11.600;2023-02-15T07:14:59;26.03;;;8.53;;
18881;SDS011;9573;50.948;11.600;2023-02-15T07:17:26;26.27;;;8.17;;
18881;SDS011;9573;50.948;11.600;2023-02-15T07:19:54;27.10;;;8.43;;
18881;SDS011;9573;50.948;11.600;2023-02-15T07:22:21;27.53;;;8.03;;
18881;SDS011;9573;50.948;11.600;2023-02-15T07:24:48;36.70;;;9.10;;
18881;SDS011;9573;50.948;11.600;2023-02-15T07:27:20;32.63;;;9.00;;
18881;SDS011;9573;50.948;11.600;2023-02-15T07:29:47;28.57;;;7.50;;
18881;SDS011;9573;50.948;11.600;2023-02-15T07:32:15;36.83;;;12.27;;
18881;SDS011;9573;50.948;11.600;2023-02-15T07:34:42;28.77;;;9.13;;
18881;SDS011;9573;50.948;11.600;2023-02-15T07:37:09;28.57;;;8.30;;
18881;SDS011;9573;50.948;11.600;2023-02-15T07:39:36;33.90;;;9.10;;
18881;SDS011;9573;50.948;11.600;2023-02-15T07:42:03;29.13;;;8.70;;
18881;SDS011;9573;50.948;11.600;2023-02-15T07:44:31;31.90;;;9.10;;
18881;SDS011;9573;50.948;11.600;2023-02-15T07:46:58;25.63;;;7.63;;
18881;SDS011;9573;50.948;11.600;2023-02-15T07:49:26;27.43;;;9.40;;
18881;SDS011;9573;50.948;11.600;2023-02-15T07:51:53;21.57;;;5.93;;
18881;SDS011;9573;50.948;11.600;2023-02-15T07:54:20;29.70;;;9.33;;
18881;SDS011;9573;50.948;11.600;2023-02-15T07:56:47;26.33;;;8.57;;
18881;SDS011;9573;50.948;11.600;2023-02-15T07:59:14;29.50;;;9.33;;
18881;SDS011;9573;50.948;11.600;2023-02-15T08:01:42;28.83;;;9.20;;
18881;SDS011;9573;50.948;11.600;2023-02-15T08:04:10;22.47;;;7.27;;
18881;SDS011;9573;50.948;11.600;2023-02-15T08:06:37;28.80;;;8.93;;
18881;SDS011;9573;50.948;11.600;2023-02-15T08:09:05;28.50;;;9.03;;
18881;SDS011;9573;50.948;11.600;2023-02-15T08:11:34;27.40;;;8.43;;
18881;SDS011;9573;50.948;11.600;2023-02-15T08:14:05;29.30;;;9.93;;
18881;SDS011;9573;50.948;11.600;2023-02-15T08:16:35;26.97;;;8.70;;
18881;SDS011;9573;50.948;11.600;2023-02-15T08:19:06;28.23;;;9.43;;
18881;SDS011;9573;50.948;11.600;2023-02-15T08:21:36;28.07;;;10.00;;
18881;SDS011;9573;50.948;11.600;2023-02-15T08:24:05;27.00;;;9.50;;
18881;SDS011;9573;50.948;11.600;2023-02-15T08:26:33;29.93;;;9.33;;
18881;SDS011;9573;50.948;11.600;2023-02-15T08:29:02;29.17;;;10.23;;
18881;SDS011;9573;50.948;11.600;2023-02-15T08:31:29;24.87;;;8.83;;
18881;SDS011;9573;50.948;11.600;2023-02-15T08:33:56;28.23;;;10.07;;
18881;SDS011;9573;50.948;11.600;2023-02-15T08:36:26;25.30;;;9.03;;
18881;SDS011;9573;50.948;11.600;2023-02-15T08:38:57;26.40;;;9.60;;
18881;SDS011;9573;50.948;11.600;2023-02-15T08:41:29;25.87;;;9.03;;
18881;SDS011;9573;50.948;11.600;2023-02-15T08:43:59;23.87;;;8.30;;
18881;SDS011;9573;50.948;11.600;2023-02-15T08:46:29;24.13;;;8.70;;
18881;SDS011;9573;50.948;11.600;2023-02-15T08:48:59;24.83;;;9.47;;
18881;SDS011;9573;50.948;11.600;2023-02-15T08:51:29;24.83;;;9.07;;
18881;SDS011;9573;50.948;11.600;2023-02-15T08:53:59;22.93;;;7.97;;
18881;SDS011;9573;50.948;11.600;2023-02-15T08:56:29;24.37;;;9.67;;
18881;SDS011;9573;50.948;11.600;2023-02-15T08:58:58;19.40;;;7.77;;
18881;SDS011;9573;50.948;11.600;2023-02-15T09:01:26;19.73;;;8.20;;
18881;SDS011;9573;50.948;11.600;2023-02-15T09:03:56;21.00;;;7.90;;
18881;SDS011;9573;50.948;11.600;2023-02-15T09:06:25;22.33;;;8.57;;
18881;SDS011;9573;50.948;11.600;2023-02-15T09:08:54;21.83;;;8.67;;
18881;SDS011;9573;50.948;11.600;2023-02-15T09:11:23;19.63;;;7.77;;
18881;SDS011;9573;50.948;11.600;2023-02-15T09:13:52;22.40;;;9.47;;
18881;SDS011;9573;50.948;11.600;2023-02-15T09:16:21;20.90;;;8.77;;
18881;SDS011;9573;50.948;11.600;2023-02-15T09:18:50;17.13;;;6.90;;
18881;SDS011;9573;50.948;11.600;2023-02-15T09:21:18;19.53;;;7.50;;
18881;SDS011;9573;50.948;11.600;2023-02-15T09:23:49;20.50;;;8.20;;
18881;SDS011;9573;50.948;11.600;2023-02-15T09:26:20;18.40;;;7.50;;
18881;SDS011;9573;50.948;11.600;2023-02-15T09:28:51;18.90;;;7.50;;
18881;SDS011;9573;50.948;11.600;2023-02-15T09:31:21;19.37;;;8.07;;
18881;SDS011;9573;50.948;11.600;2023-02-15T09:33:50;21.13;;;8.33;;
18881;SDS011;9573;50.948;11.600;2023-02-15T09:36:18;27.27;;;12.20;;
18881;SDS011;9573;50.948;11.600;2023-02-15T09:38:47;23.30;;;8.70;;
18881;SDS011;9573;50.948;11.600;2023-02-15T09:41:35;19.57;;;7.80;;
18881;SDS011;9573;50.948;11.600;2023-02-15T09:44:39;19.60;;;7.33;;
18881;SDS011;9573;50.948;11.600;2023-02-15T09:50:20;22.40;;;8.07;;
18881;SDS011;9573;50.948;11.600;2023-02-15T09:53:01;19.80;;;7.67;;
18881;SDS011;9573;50.948;11.600;2023-02-15T09:55:55;20.73;;;8.37;;
18881;SDS011;9573;50.948;11.600;2023-02-15T09:58:34;27.10;;;8.70;;
18881;SDS011;9573;50.948;11.600;2023-02-15T10:01:14;17.00;;;8.03;;
18881;SDS011;9573;50.948;11.600;2023-02-15T10:03:56;20.47;;;8.17;;
18881;SDS011;9573;50.948;11.600;2023-02-15T10:06:48;19.53;;;7.70;;
18881;SDS011;9573;50.948;11.600;2023-02-15T10:09:30;17.20;;;7.83;;
18881;SDS011;9573;50.948;11.600;2023-02-15T10:12:17;20.50;;;7.97;;
18881;SDS011;9573;50.948;11.600;2023-02-15T10:15:28;22.00;;;8.03;;
18881;SDS011;9573;50.948;11.600;2023-02-15T10:18:24;17.97;;;7.60;;
18881;SDS011;9573;50.948;11.600;2023-02-15T10:21:10;20.03;;;8.30;;
18881;SDS011;9573;50.948;11.600;2023-02-15T10:23:58;21.23;;;8.07;;
18881;SDS011;9573;50.948;11.600;2023-02-15T10:26:42;24.93;;;8.50;;
18881;SDS011;9573;50.948;11.600;2023-02-15T10:29:13;18.37;;;7.23;;
18881;SDS011;9573;50.948;11.600;2023-02-15T10:31:57;22.10;;;8.00;;
18881;SDS011;9573;50.948;11.600;2023-02-15T10:34:33;20.80;;;7.70;;
18881;SDS011;9573;50.948;11.600;2023-02-15T10:37:18;37.50;;;9.13;;
18881;SDS011;9573;50.948;11.600;2023-02-15T10:40:11;16.63;;;7.40;;
18881;SDS011;9573;50.948;11.600;2023-02-15T10:42:54;17.07;;;7.03;;
18881;SDS011;9573;50.948;11.600;2023-02-15T10:45:39;13.53;;;6.13;;
18881;SDS011;9573;50.948;11.600;2023-02-15T10:48:24;18.90;;;7.40;;
18881;SDS011;9573;50.948;11.600;2023-02-15T10:51:10;20.67;;;7.63;;
18881;SDS011;9573;50.948;11.600;2023-02-15T10:53:54;20.47;;;6.93;;
18881;SDS011;9573;50.948;11.600;2023-02-15T10:56:30;19.53;;;7.30;;
18881;SDS011;9573;50.948;11.600;2023-02-15T10:59:11;22.13;;;7.60;;
18881;SDS011;9573;50.948;11.600;2023-02-15T11:01:56;17.57;;;7.00;;
18881;SDS011;9573;50.948;11.600;2023-02-15T11:04:38;17.73;;;6.33;;
18881;SDS011;9573;50.948;11.600;2023-02-15T11:07:15;17.57;;;6.80;;
18881;SDS011;9573;50.948;11.600;2023-02-15T11:09:47;19.13;;;6.20;;
18881;SDS011;9573;50.948;11.600;2023-02-15T11:12:19;16.73;;;7.00;;
18881;SDS011;9573;50.948;11.600;2023-02-15T11:14:51;19.67;;;6.80;;
18881;SDS011;9573;50.948;11.600;2023-02-15T11:17:25;16.47;;;6.07;;
18881;SDS011;9573;50.948;11.600;2023-02-15T11:20:04;16.47;;;6.57;;
18881;SDS011;9573;50.948;11.600;2023-02-15T11:22:43;16.97;;;6.40;;
18881;SDS011;9573;50.948;11.600;2023-02-15T11:25:16;19.07;;;7.23;;
18881;SDS011;9573;50.948;11.600;2023-02-15T11:27:46;19.87;;;7.43;;
18881;SDS011;9573;50.948;11.600;2023-02-15T11:30:16;27.57;;;7.53;;
18881;SDS011;9573;50.948;11.600;2023-02-15T11:32:46;21.97;;;7.10;;
18881;SDS011;9573;50.948;11.600;2023-02-15T11:35:19;19.43;;;6.47;;
18881;SDS011;9573;50.948;11.600;2023-02-15T11:37:54;16.77;;;6.07;;
18881;SDS011;9573;50.948;11.600;2023-02-15T11:40:30;15.17;;;6.33;;
18881;SDS011;9573;50.948;11.600;2023-02-15T11:43:03;20.47;;;6.83;;
18881;SDS011;9573;50.948;11.600;2023-02-15T11:45:37;21.03;;;6.70;;
18881;SDS011;9573;50.948;11.600;2023-02-15T11:48:08;19.77;;;6.30;;
18881;SDS011;9573;50.948;11.600;2023-02-15T11:50:39;15.63;;;6.00;;
18881;SDS011;9573;50.948;11.600;2023-02-15T11:53:09;18.27;;;6.80;;
18881;SDS011;9573;50.948;11.600;2023-02-15T11:55:39;18.17;;;6.13;;
18881;SDS011;9573;50.948;11.600;2023-02-15T11:58:11;15.37;;;5.80;;
18881;SDS011;9573;50.948;11.600;2023-02-15T12:00:54;17.70;;;5.80;;
18881;SDS011;9573;50.948;11.600;2023-02-15T12:03:29;26.93;;;6.73;;
18881;SDS011;9573;50.948;11.600;2023-02-15T12:06:12;14.47;;;5.93;;
18881;SDS011;9573;50.948;11.600;2023-02-15T12:08:48;15.20;;;5.70;;
18881;SDS011;9573;50.948;11.600;2023-02-15T12:11:25;14.73;;;5.90;;
18881;SDS011;9573;50.948;11.600;2023-02-15T12:14:00;15.40;;;5.63;;
18881;SDS011;9573;50.948;11.600;2023-02-15T12:16:31;11.60;;;5.80;;
18881;SDS011;9573;50.948;11.600;2023-02-15T12:19:09;15.30;;;5.67;;
18881;SDS011;9573;50.948;11.600;2023-02-15T12:21:52;21.67;;;5.80;;
18881;SDS011;9573;50.948;11.600;2023-02-15T12:24:20;15.13;;;5.97;;
18881;SDS011;9573;50.948;11.600;2023-02-15T12:26:55;14.23;;;5.77;;
18881;SDS011;9573;50.948;11.600;2023-02-15T12:29:27;15.30;;;5.73;;
18881;SDS011;9573;50.948;11.600;2023-02-15T12:31:57;15.47;;;5.50;;
18881;SDS011;9573;50.948;11.600;2023-02-15T12:34:26;23.30;;;6.27;;
18881;SDS011;9573;50.948;11.600;2023-02-15T12:37:00;13.67;;;5.50;;
18881;SDS011;9573;50.948;11.600;2023-02-15T12:39:35;14.93;;;5.50;;
18881;SDS011;9573;50.948;11.600;2023-02-15T12:42:04;13.97;;;5.20;;
18881;SDS011;9573;50.948;11.600;2023-02-15T12:44:52;16.17;;;5.80;;
18881;SDS011;9573;50.948;11.600;2023-02-15T12:47:22;16.40;;;5.07;;
18881;SDS011;9573;50.948;11.600;2023-02-15T12:50:05;15.30;;;5.05;;
18881;SDS011;9573;50.948;11.600;2023-02-15T12:52:43;13.10;;;4.90;;
18881;SDS011;9573;50.948;11.600;2023-02-15T12:55:21;13.93;;;5.30;;
18881;SDS011;9573;50.948;11.600;2023-02-15T12:58:04;16.55;;;5.20;;
18881;SDS011;9573;50.948;11.600;2023-02-15T13:00:33;18.30;;;5.30;;
18881;SDS011;9573;50.948;11.600;2023-02-15T13:03:00;18.13;;;5.60;;
18881;SDS011;9573;50.948;11.600;2023-02-15T13:05:30;15.63;;;5.33;;
18881;SDS011;9573;50.948;11.600;2023-02-15T13:08:02;27.77;;;6.37;;
18881;SDS011;9573;50.948;11.600;2023-02-15T13:10:39;16.23;;;5.07;;
18881;SDS011;9573;50.948;11.600;2023-02-15T13:13:18;14.97;;;5.30;;
18881;SDS011;9573;50.948;11.600;2023-02-15T13:15:49;15.70;;;4.97;;
18881;SDS011;9573;50.948;11.600;2023-02-15T13:18:19;10.90;;;4.90;;
18881;SDS011;9573;50.948;11.600;2023-02-15T13:20:55;15.70;;;5.30;;
18881;SDS011;9573;50.948;11.600;2023-02-15T13:23:25;14.10;;;5.00;;
18881;SDS011;9573;50.948;11.600;2023-02-15T13:25:55;18.00;;;5.30;;
18881;SDS011;9573;50.948;11.600;2023-02-15T13:28:25;12.97;;;5.00;;
18881;SDS011;9573;50.948;11.600;2023-02-15T13:31:02;16.23;;;4.83;;
18881;SDS011;9573;50.948;11.600;2023-02-15T13:33:31;18.03;;;5.30;;
18881;SDS011;9573;50.948;11.600;2023-02-15T13:36:02;17.20;;;5.00;;
18881;SDS011;9573;50.948;11.600;2023-02-15T13:38:43;15.83;;;5.00;;
18881;SDS011;9573;50.948;11.600;2023-02-15T13:41:25;16.63;;;4.70;;
18881;SDS011;9573;50.948;11.600;2023-02-15T13:43:59;14.60;;;5.00;;
18881;SDS011;9573;50.948;11.600;2023-02-15T13:46:45;13.03;;;4.80;;
18881;SDS011;9573;50.948;11.600;2023-02-15T13:49:27;17.93;;;5.67;;
18881;SDS011;9573;50.948;11.600;2023-02-15T13:52:13;14.87;;;4.90;;
18881;SDS011;9573;50.948;11.600;2023-02-15T13:58:06;21.67;;;5.13;;
18881;SDS011;9573;50.948;11.600;2023-02-15T14:00:59;12.37;;;4.90;;
18881;SDS011;9573;50.948;11.600;2023-02-15T14:06:50;11.90;;;4.77;;
18881;SDS011;9573;50.948;11.600;2023-02-15T14:09:36;18.53;;;5.20;;
18881;SDS011;9573;50.948;11.600;2023-02-15T14:12:24;21.17;;;5.10;;
18881;SDS011;9573;50.948;11.600;2023-02-15T14:15:11;17.57;;;4.77;;
18881;SDS011;9573;50.948;11.600;2023-02-15T14:17:57;10.60;;;3.97;;
18881;SDS011;9573;50.948;11.600;2023-02-15T14:20:41;18.77;;;4.73;;
18881;SDS011;9573;50.948;11.600;2023-02-15T14:23:24;14.87;;;4.77;;
18881;SDS011;9573;50.948;11.600;2023-02-15T14:26:10;16.97;;;5.43;;
18881;SDS011;9573;50.948;11.600;2023-02-15T14:28:54;16.00;;;6.40;;
18881;SDS011;9573;50.948;11.600;2023-02-15T14:31:34;20.50;;;6.40;;
18881;SDS011;9573;50.948;11.600;2023-02-15T14:34:08;18.17;;;6.20;;
18881;SDS011;9573;50.948;11.600;2023-02-15T14:36:49;22.00;;;6.00;;
18881;SDS011;9573;50.948;11.600;2023-02-15T14:39:22;16.27;;;5.80;;
18881;SDS011;9573;50.948;11.600;2023-02-15T14:42:20;23.23;;;7.70;;
18881;SDS011;9573;50.948;11.600;2023-02-15T14:45:00;16.53;;;5.90;;
18881;SDS011;9573;50.948;11.600;2023-02-15T14:47:39;20.57;;;6.57;;
18881;SDS011;9573;50.948;11.600;2023-02-15T14:53:16;17.97;;;6.63;;
18881;SDS011;9573;50.948;11.600;2023-02-15T14:56:14;25.50;;;6.53;;
18881;SDS011;9573;50.948;11.600;2023-02-15T14:58:55;17.00;;;6.60;;
18881;SDS011;9573;50.948;11.600;2023-02-15T15:01:54;18.90;;;6.47;;
18881;SDS011;9573;50.948;11.600;2023-02-15T15:04:26;20.67;;;6.37;;
18881;SDS011;9573;50.948;11.600;2023-02-15T15:06:59;17.90;;;6.03;;
18881;SDS011;9573;50.948;11.600;2023-02-15T15:09:34;17.40;;;6.63;;
18881;SDS011;9573;50.948;11.600;2023-02-15T15:12:15;23.03;;;6.60;;
18881;SDS011;9573;50.948;11.600;2023-02-15T15:15:04;24.20;;;6.33;;
18881;SDS011;9573;50.948;11.600;2023-02-15T15:17:54;18.63;;;6.17;;
18881;SDS011;9573;50.948;11.600;2023-02-15T15:20:38;15.10;;;6.20;;
18881;SDS011;9573;50.948;11.600;2023-02-15T15:26:24;16.87;;;6.20;;